Weather at Antalya International Airport

Public forecast

Using degrees Celsius for public forecast. Weather courtesy of forecast.io.

Current aviation weather report (METAR) for Antalya International Airport

Retrieved 2020/09/24 08:20 UTC (0 seconds ago):

LTAI 240820Z 18007KT CAVOK 29/20 Q1011 NOSIG

Aviation forecast (TAF) for Antalya International Airport

Retrieved 2020/09/24 06:03 UTC (2 hours ago):

TAF LTAI 240440Z 2406/2506 34009KT CAVOK BECMG 2406/2409 18012KT BECMG 2409/2412 FEW030 BECMG 2415/2418 34006KT CAVOK BECMG 2422/2424 FEW030 SCT100